Time;durP1;ratioP1;P1;durP2;ratioP2;P2;SDS_P1;SDS_P2;PMS_P1;PMS_P2;Temp;Humidity;BMP_temperature;BMP_pressure;BME280_temperature;BME280_humidity;BME280_pressure;Samples;Min_cycle;Max_cycle;Signal;HPM_P1;HPM_P2
2022/05/22 00:00:12;;;;;;;9.50;7.30;;;;;;;18.17;100.00;96305.88;5040669;28;20210;-82
2022/05/22 00:02:41;;;;;;;10.23;8.00;;;;;;;18.09;100.00;96304.53;5029131;28;20213;-82
2022/05/22 00:05:11;;;;;;;9.57;8.53;;;;;;;17.93;100.00;96304.88;5038943;28;20210;-83
2022/05/22 00:07:38;;;;;;;13.83;7.50;;;;;;;17.91;100.00;96302.41;5044416;28;20198;-83
2022/05/22 00:10:06;;;;;;;11.77;7.70;;;;;;;17.85;100.00;96308.19;5036933;28;20195;-83
2022/05/22 00:12:34;;;;;;;8.97;8.07;;;;;;;17.80;100.00;96303.53;5030486;28;20209;-82
2022/05/22 00:15:01;;;;;;;9.67;7.73;;;;;;;17.80;100.00;96303.53;5043636;28;20215;-82
2022/05/22 00:17:28;;;;;;;9.67;7.87;;;;;;;17.85;100.00;96291.78;5042597;28;20332;-82
2022/05/22 00:19:57;;;;;;;14.03;8.10;;;;;;;17.85;100.00;96287.16;5035238;28;20214;-82
2022/05/22 00:22:24;;;;;;;8.60;7.63;;;;;;;17.83;100.00;96293.97;5051697;28;20217;-82
2022/05/22 00:24:52;;;;;;;11.03;7.43;;;;;;;17.78;100.00;96292.88;5040965;28;20203;-82
2022/05/22 00:27:19;;;;;;;9.47;7.47;;;;;;;17.80;100.00;96294.53;5043188;28;20201;-82
2022/05/22 00:29:46;;;;;;;9.47;7.17;;;;;;;17.74;100.00;96285.53;5041527;28;20202;-83
2022/05/22 00:32:14;;;;;;;10.63;7.30;;;;;;;17.78;100.00;96286.59;5041175;28;20236;-82
2022/05/22 00:34:41;;;;;;;8.37;7.10;;;;;;;17.81;100.00;96296.97;5045169;28;20232;-83
2022/05/22 00:37:10;;;;;;;8.90;7.07;;;;;;;17.88;100.00;96302.13;5043583;28;20245;-83
2022/05/22 00:39:37;;;;;;;10.77;7.70;;;;;;;17.84;100.00;96295.63;5031843;28;20256;-82
2022/05/22 00:42:14;;;;;;;11.70;7.30;;;;;;;17.78;100.00;96297.53;5040696;28;20273;-82
2022/05/22 00:44:43;;;;;;;15.80;7.90;;;;;;;17.76;100.00;96291.53;5046722;28;20218;-83
2022/05/22 00:47:10;;;;;;;9.63;7.03;;;;;;;17.79;100.00;96288.25;5030146;28;21914;-82
2022/05/22 00:49:41;;;;;;;11.27;7.83;;;;;;;17.78;100.00;96297.53;5039256;28;20210;-82
2022/05/22 00:52:14;;;;;;;11.50;7.20;;;;;;;17.80;100.00;96300.81;5050632;28;20217;-82
2022/05/22 00:54:46;;;;;;;8.47;6.83;;;;;;;17.73;100.00;96290.16;5040181;28;20229;-83
2022/05/22 00:57:18;;;;;;;9.80;7.80;;;;;;;17.65;100.00;96289.91;5035182;28;20202;-82
2022/05/22 00:59:49;;;;;;;10.20;7.57;;;;;;;17.62;100.00;96287.72;5036369;28;20257;-82
2022/05/22 01:02:17;;;;;;;8.73;7.20;;;;;;;17.65;100.00;96285.28;5031323;28;20292;-83
2022/05/22 01:04:46;;;;;;;12.90;7.90;;;;;;;17.60;100.00;96279.00;5049388;28;20293;-83
2022/05/22 01:07:15;;;;;;;9.27;8.03;;;;;;;17.55;100.00;96287.16;5037149;28;20201;-82
2022/05/22 01:09:42;;;;;;;8.70;7.50;;;;;;;17.48;100.00;96284.72;5035577;28;20203;-82
2022/05/22 01:12:15;;;;;;;9.33;7.77;;;;;;;17.54;100.00;96280.88;5037518;28;20232;-82
2022/05/22 01:14:47;;;;;;;10.23;7.57;;;;;;;17.58;100.00;96270.25;5031326;28;20234;-84
2022/05/22 01:17:16;;;;;;;7.47;6.67;;;;;;;17.61;100.00;96266.94;5034989;28;20223;-81
2022/05/22 01:19:54;;;;;;;8.67;7.20;;;;;;;17.67;100.00;96274.91;5034105;28;20199;-83
2022/05/22 01:22:23;;;;;;;8.87;7.13;;;;;;;17.66;100.00;96267.81;5037698;28;20202;-82
2022/05/22 01:24:50;;;;;;;11.47;7.67;;;;;;;17.70;100.00;96276.25;5043281;28;20217;-82
2022/05/22 01:27:19;;;;;;;10.23;7.73;;;;;;;17.68;100.00;96275.72;5043849;28;20219;-83
2022/05/22 01:30:07;;;;;;;8.60;7.40;;;;;;;17.64;100.00;96277.34;5037140;28;20303;-83
2022/05/22 01:32:36;;;;;;;12.43;7.53;;;;;;;17.62;100.00;96271.34;5039871;28;20245;-82
2022/05/22 01:35:08;;;;;;;10.67;7.13;;;;;;;17.51;100.00;96277.91;5033395;28;20239;-82
2022/05/22 01:37:37;;;;;;;8.43;7.00;;;;;;;17.44;100.00;96274.66;5045706;28;20205;-82
2022/05/22 01:40:07;;;;;;;8.80;7.80;;;;;;;17.41;100.00;96281.47;5038594;28;20202;-83
2022/05/22 01:42:34;;;;;;;11.03;7.60;;;;;;;17.46;100.00;96289.63;5034617;28;20281;-82
2022/05/22 01:45:03;;;;;;;8.50;7.70;;;;;;;17.45;100.00;96282.53;5040927;28;20211;-82
2022/05/22 01:47:33;;;;;;;8.60;7.50;;;;;;;17.40;100.00;96280.66;5037405;28;20210;-82
2022/05/22 01:50:01;;;;;;;10.57;7.87;;;;;;;17.36;100.00;96274.09;5040360;28;20206;-83
2022/05/22 01:52:28;;;;;;;8.50;7.43;;;;;;;17.37;100.00;96275.72;5037805;28;20202;-83
2022/05/22 01:54:57;;;;;;;10.87;7.50;;;;;;;17.37;100.00;96285.81;5047503;28;20312;-83
2022/05/22 01:57:25;;;;;;;7.90;7.10;;;;;;;17.34;100.00;96281.75;5033507;28;20217;-83
2022/05/22 01:59:52;;;;;;;9.03;6.97;;;;;;;17.24;100.00;96279.03;5034075;28;20206;-83
2022/05/22 02:02:25;;;;;;;11.90;7.70;;;;;;;17.20;100.00;96280.66;5037752;28;20214;-83
2022/05/22 02:04:55;;;;;;;9.20;7.50;;;;;;;17.14;100.00;96275.47;5050123;28;20202;-82
2022/05/22 02:10:12;;;;;;;8.67;7.30;;;;;;;17.19;100.00;96298.13;5041804;28;20298;-82
2022/05/22 02:12:39;;;;;;;9.83;7.43;;;;;;;17.15;100.00;96282.56;5041514;28;20234;-82
2022/05/22 02:15:08;;;;;;;9.27;7.13;;;;;;;17.11;100.00;96282.28;5039136;28;20218;-82
2022/05/22 02:17:37;;;;;;;9.87;7.47;;;;;;;17.09;100.00;96280.94;5047264;28;20204;-82
2022/05/22 02:20:05;;;;;;;9.80;8.10;;;;;;;17.10;100.00;96291.56;5047207;28;20199;-82
2022/05/22 02:22:40;;;;;;;9.07;7.60;;;;;;;17.10;100.00;96291.56;5046332;28;20217;-82
2022/05/22 02:25:09;;;;;;;14.60;7.83;;;;;;;17.05;100.00;96288.84;5041735;28;20202;-82
2022/05/22 02:27:37;;;;;;;11.00;7.60;;;;;;;17.00;100.00;96289.69;5036940;28;20289;-82
2022/05/22 02:30:08;;;;;;;12.47;7.93;;;;;;;16.98;100.00;96278.22;5037995;28;20221;-82
2022/05/22 02:32:37;;;;;;;8.67;7.57;;;;;;;16.99;100.00;96274.41;5039587;28;20234;-82
2022/05/22 02:35:07;;;;;;;10.40;7.87;;;;;;;16.97;100.00;96283.94;5047463;28;20246;-82
2022/05/22 02:37:41;;;;;;;9.00;8.00;;;;;;;16.85;100.00;96286.09;5037342;28;20298;-83
2022/05/22 02:40:19;;;;;;;8.90;8.00;;;;;;;16.73;100.00;96274.66;5036860;28;20240;-82
2022/05/22 02:42:54;;;;;;;8.47;7.33;;;;;;;16.73;100.00;96270.00;5037569;28;20210;-82
2022/05/22 02:45:28;;;;;;;10.43;8.07;;;;;;;16.72;100.00;96270.28;5041797;28;20202;-83
2022/05/22 02:48:02;;;;;;;14.63;8.50;;;;;;;16.59;100.00;96277.84;5036195;28;20214;-82
2022/05/22 02:50:32;;;;;;;9.63;8.60;;;;;;;16.50;100.00;96270.50;5041508;28;20202;-82
2022/05/22 02:53:08;;;;;;;9.77;7.97;;;;;;;16.48;100.00;96270.75;5038385;28;20210;-82
2022/05/22 02:55:56;;;;;;;12.30;8.90;;;;;;;16.51;100.00;96264.75;5037364;28;20233;-83
2022/05/22 02:58:36;;;;;;;12.77;8.83;;;;;;;16.48;100.00;96265.31;5036872;28;20332;-83
2022/05/22 03:01:03;;;;;;;9.63;7.90;;;;;;;16.41;100.00;96262.03;5040482;28;20215;-82
2022/05/22 03:03:31;;;;;;;12.10;7.87;;;;;;;16.45;100.00;96259.56;5037236;28;20203;-82
2022/05/22 03:08:43;;;;;;;10.07;8.37;;;;;;;16.29;100.00;96250.53;5040153;28;20210;-82
2022/05/22 03:11:11;;;;;;;10.20;8.80;;;;;;;16.18;100.00;96252.41;5041410;28;20201;-83
2022/05/22 03:13:39;;;;;;;14.10;8.97;;;;;;;16.13;100.00;96255.13;5040559;28;20198;-82
2022/05/22 03:16:07;;;;;;;10.70;8.60;;;;;;;16.20;100.00;96257.59;5047469;28;20250;-82
2022/05/22 03:18:49;;;;;;;12.10;8.33;;;;;;;16.26;100.00;96256.50;5039663;28;20313;-82
2022/05/22 03:21:20;;;;;;;12.70;8.93;;;;;;;16.27;100.00;96258.16;5039969;28;20214;-82
2022/05/22 03:23:54;;;;;;;10.63;8.17;;;;;;;16.29;100.00;96253.25;5041147;28;20214;-83
2022/05/22 03:26:22;;;;;;;10.97;8.67;;;;;;;16.34;100.00;96244.28;5040410;28;20238;-83
2022/05/22 03:28:51;;;;;;;12.70;8.30;;;;;;;16.38;100.00;96243.47;5049842;28;20224;-83
2022/05/22 03:31:19;;;;;;;8.83;7.93;;;;;;;16.40;100.00;96244.03;5041678;28;20210;-82
2022/05/22 03:33:46;;;;;;;9.40;8.43;;;;;;;16.44;100.00;96250.56;5031947;28;20229;-82
2022/05/22 03:36:14;;;;;;;8.93;7.83;;;;;;;16.41;100.00;96248.41;5045531;28;20230;-83
2022/05/22 03:38:41;;;;;;;11.57;8.30;;;;;;;16.44;100.00;96245.13;5047446;28;20205;-82
2022/05/22 03:41:08;;;;;;;9.53;7.97;;;;;;;16.39;100.00;96244.31;5045596;28;20229;-82
2022/05/22 03:43:39;;;;;;;10.40;8.57;;;;;;;16.34;100.00;96239.66;5041285;28;20213;-83
2022/05/22 03:46:24;;;;;;;10.00;8.40;;;;;;;16.33;100.00;96234.50;5038073;28;20206;-82
2022/05/22 03:48:52;;;;;;;10.53;8.47;;;;;;;16.22;100.00;96241.81;5032683;28;20202;-81
2022/05/22 03:51:19;;;;;;;11.20;8.27;;;;;;;16.12;100.00;96230.88;5034104;28;20196;-82
2022/05/22 03:53:46;;;;;;;11.03;8.47;;;;;;;16.11;100.00;96240.94;5048707;28;20209;-83
2022/05/22 03:56:27;;;;;;;9.30;8.30;;;;;;;16.16;100.00;96240.16;5041033;28;20321;-81
2022/05/22 03:58:54;;;;;;;10.23;8.10;;;;;;;16.22;100.00;96237.19;5035854;28;20213;-83
2022/05/22 04:01:21;;;;;;;11.57;7.97;;;;;;;16.24;100.00;96235.00;5038576;28;20209;-83
2022/05/22 04:03:57;;;;;;;10.50;7.63;;;;;;;16.27;100.00;96230.91;5037596;28;20210;-83
2022/05/22 04:06:25;;;;;;;11.30;8.20;;;;;;;16.37;100.00;96233.66;5038811;28;20202;-83
2022/05/22 04:08:52;;;;;;;10.50;7.93;;;;;;;16.37;100.00;96233.66;5033267;28;20213;-82
2022/05/22 04:11:27;;;;;;;9.60;7.43;;;;;;;16.42;100.00;96222.75;5037519;28;20233;-81
2022/05/22 04:13:58;;;;;;;9.47;8.47;;;;;;;16.43;100.00;96209.97;5036708;28;20214;-82
2022/05/22 04:16:25;;;;;;;12.73;7.97;;;;;;;16.41;100.00;96210.25;5049205;28;20219;-82
2022/05/22 04:18:52;;;;;;;11.20;7.93;;;;;;;16.43;100.00;96226.31;5042365;28;20206;-83
2022/05/22 04:21:21;;;;;;;8.57;7.67;;;;;;;16.34;100.00;96208.84;5041452;28;20295;-83
2022/05/22 04:26:40;;;;;;;9.33;8.13;;;;;;;16.22;100.00;96199.03;5042856;28;20217;-83
2022/05/22 04:29:12;;;;;;;9.57;7.93;;;;;;;16.29;100.00;96190.59;5042559;28;20268;-81
2022/05/22 04:31:39;;;;;;;10.60;8.43;;;;;;;16.36;100.00;96196.59;5041193;28;20273;-82
2022/05/22 04:34:12;;;;;;;10.97;7.60;;;;;;;16.45;100.00;96188.72;5044326;28;20257;-82
2022/05/22 04:36:41;;;;;;;9.10;8.20;;;;;;;16.40;100.00;96184.09;5039407;28;20227;-83
2022/05/22 04:39:12;;;;;;;9.97;7.63;;;;;;;16.31;100.00;96172.09;5029257;28;20213;-82
2022/05/22 04:41:54;;;;;;;11.17;9.07;;;;;;;16.34;100.00;96174.25;5036011;28;20207;-83
2022/05/22 04:44:21;;;;;;;10.90;8.53;;;;;;;16.35;100.00;96170.44;5050339;28;20304;-83
2022/05/22 04:46:52;;;;;;;10.67;8.03;;;;;;;16.43;100.00;96158.19;5057523;28;20199;-82
2022/05/22 04:49:20;;;;;;;8.73;7.40;;;;;;;16.47;100.00;96157.38;5038003;28;20221;-82
2022/05/22 04:51:48;;;;;;;11.67;8.33;;;;;;;16.49;100.00;96146.22;5036990;28;20206;-83
2022/05/22 04:54:15;;;;;;;10.10;8.07;;;;;;;16.45;100.00;96143.19;5036462;28;20298;-83
2022/05/22 04:56:59;;;;;;;8.53;7.43;;;;;;;16.49;100.00;96147.03;5035351;28;20211;-81
2022/05/22 04:59:27;;;;;;;10.33;8.10;;;;;;;16.56;100.00;96135.84;5041633;28;20325;-82
2022/05/22 05:01:54;;;;;;;9.03;8.07;;;;;;;16.55;100.00;96132.31;5039142;28;20218;-81
2022/05/22 05:04:27;;;;;;;9.70;8.23;;;;;;;16.56;100.00;96131.22;5031616;28;20206;-83
2022/05/22 05:07:07;;;;;;;10.00;7.80;;;;;;;16.60;100.00;96128.75;5038614;28;20215;-82
2022/05/22 05:09:54;;;;;;;11.00;7.50;;;;;;;16.69;100.00;96131.78;5012720;28;20313;-83
2022/05/22 05:12:41;;;;;;;10.27;7.57;;;;;;;16.69;100.00;96132.59;5037266;28;20226;-82
2022/05/22 05:15:11;;;;;;;9.10;7.40;;;;;;;16.70;100.00;96138.88;5035261;28;20210;-83
2022/05/22 05:17:42;;;;;;;8.67;7.37;;;;;;;16.74;100.00;96138.06;5041681;28;20270;-81
2022/05/22 05:20:11;;;;;;;8.73;7.40;;;;;;;16.68;100.00;96141.03;5041746;28;20226;-82
2022/05/22 05:22:51;;;;;;;11.37;8.17;;;;;;;16.64;100.00;96135.34;5034170;28;20199;-82
2022/05/22 05:25:25;;;;;;;12.87;7.47;;;;;;;16.67;100.00;96142.97;5030797;28;20281;-82
2022/05/22 05:27:52;;;;;;;8.80;7.90;;;;;;;16.71;100.00;96135.88;5029833;28;20210;-82
2022/05/22 05:30:21;;;;;;;10.43;7.80;;;;;;;16.72;100.00;96142.13;5038189;28;20207;-82
2022/05/22 05:32:48;;;;;;;14.73;8.73;;;;;;;16.66;100.00;96126.88;5034981;28;20256;-82
2022/05/22 05:35:35;;;;;;;10.80;8.40;;;;;;;16.62;100.00;96119.25;5047433;28;20275;-83
2022/05/22 05:38:07;;;;;;;11.13;8.10;;;;;;;16.59;100.00;96122.47;5032781;28;20221;-81
2022/05/22 05:40:35;;;;;;;10.77;8.20;;;;;;;16.63;100.00;96129.06;5042360;28;20293;-81
2022/05/22 05:43:03;;;;;;;9.33;7.43;;;;;;;16.64;100.00;96127.97;5038050;28;20209;-83
2022/05/22 05:45:31;;;;;;;13.80;8.47;;;;;;;16.70;100.00;96119.78;5032593;28;20309;-85
2022/05/22 05:48:00;;;;;;;12.67;8.37;;;;;;;16.75;100.00;96127.97;5036863;28;20270;-82
2022/05/22 05:50:43;;;;;;;9.97;8.50;;;;;;;16.80;100.00;96127.94;5033197;28;20203;-82
2022/05/22 05:53:23;;;;;;;10.70;8.37;;;;;;;16.94;100.00;96123.56;5044377;28;20203;-82
2022/05/22 05:56:09;;;;;;;11.10;8.30;;;;;;;16.96;100.00;96132.28;5034633;28;20249;-81
2022/05/22 05:58:46;;;;;;;11.87;8.87;;;;;;;17.02;100.00;96126.53;5041211;28;20214;-80
2022/05/22 06:01:25;;;;;;;9.87;8.07;;;;;;;17.07;100.00;96133.91;5036223;28;20202;-80
2022/05/22 06:03:53;;;;;;;10.00;8.43;;;;;;;17.18;100.00;96135.50;5039062;28;20207;-80
2022/05/22 06:06:21;;;;;;;9.70;8.70;;;;;;;17.29;100.00;96134.38;5030711;28;20222;-80
2022/05/22 06:08:50;;;;;;;10.10;8.27;;;;;;;17.37;100.00;96136.53;5043912;28;20202;-80
2022/05/22 06:11:30;;;;;;;10.30;8.40;;;;;;;17.48;100.00;96150.97;5040686;28;20264;-80
2022/05/22 06:14:01;;;;;;;13.60;8.93;;;;;;;17.56;100.00;96155.03;5036528;28;20300;-79
2022/05/22 06:16:28;;;;;;;12.57;10.33;;;;;;;17.58;100.00;96140.03;5033660;28;20233;-80
2022/05/22 06:19:03;;;;;;;11.27;9.07;;;;;;;17.65;100.00;96132.38;5032933;28;20352;-80
2022/05/22 06:21:30;;;;;;;10.00;8.97;;;;;;;17.76;100.00;96135.88;5026837;28;20203;-80
2022/05/22 06:23:59;;;;;;;11.97;8.63;;;;;;;17.81;100.00;96133.09;5037321;28;20207;-78
2022/05/22 06:26:45;;;;;;;13.53;9.30;;;;;;;17.81;100.00;96127.66;5047043;28;20238;-80
2022/05/22 06:29:36;;;;;;;11.00;8.60;;;;;;;17.94;100.00;96126.22;5018798;28;20225;-80
2022/05/22 06:32:22;;;;;;;15.93;9.90;;;;;;;17.95;100.00;96128.66;5029800;28;20232;-80
2022/05/22 06:35:00;;;;;;;11.23;8.67;;;;;;;18.00;100.00;96123.16;5042978;28;20230;-80
2022/05/22 06:37:48;;;;;;;13.43;9.43;;;;;;;18.04;100.00;96137.06;5034608;28;20213;-82
2022/05/22 06:40:41;;;;;;;9.63;8.63;;;;;;;18.10;100.00;96128.56;5037496;28;20286;-82
2022/05/22 06:43:46;;;;;;;13.00;8.63;;;;;;;18.19;100.00;96130.72;4983629;28;20204;-81
2022/05/22 06:46:45;;;;;;;12.77;9.23;;;;;;;18.26;100.00;96123.00;5028058;28;20291;-82
2022/05/22 06:49:32;;;;;;;10.73;9.43;;;;;;;18.35;100.00;96122.13;5042946;28;20202;-82
2022/05/22 06:52:35;;;;;;;12.37;9.40;;;;;;;18.45;100.00;96111.09;5006682;28;20250;-82
2022/05/22 06:55:21;;;;;;;14.23;9.47;;;;;;;18.56;100.00;96120.03;5031361;28;20203;-82
2022/05/22 06:58:08;;;;;;;11.13;9.83;;;;;;;18.62;100.00;96116.19;5030678;28;20226;-82
2022/05/22 07:01:10;;;;;;;11.43;9.90;;;;;;;18.67;100.00;96126.25;5030682;28;20210;-82
2022/05/22 07:03:59;;;;;;;12.53;10.03;;;;;;;18.63;100.00;96134.22;5035874;28;20266;-82
2022/05/22 07:06:42;;;;;;;11.40;9.37;;;;;;;18.59;100.00;96126.88;5036810;28;20234;-81
2022/05/22 07:09:16;;;;;;;11.67;10.20;;;;;;;18.68;100.00;96130.63;5040038;28;20206;-83
2022/05/22 07:12:14;;;;;;;12.60;10.03;;;;;;;18.88;100.00;96131.25;5033186;28;20317;-86
2022/05/22 07:14:42;;;;;;;11.47;9.87;;;;;;;19.05;100.00;96130.84;5033103;28;20209;-84
2022/05/22 07:17:12;;;;;;;13.33;9.90;;;;;;;19.23;100.00;96148.41;5050917;28;20255;-86
2022/05/22 07:20:02;;;;;;;12.23;9.80;;;;;;;19.35;100.00;96145.28;5036192;28;20215;-86
2022/05/22 07:22:58;;;;;;;13.13;9.35;;;;;;;19.69;100.00;96150.69;5020355;28;20602;-86
2022/05/22 07:25:59;;;;;;;12.27;8.82;;;;;;;19.87;100.00;96145.25;5046216;28;20223;-84
2022/05/22 07:28:37;;;;;;;10.20;8.75;;;;;;;19.93;100.00;96148.72;5037247;28;20202;-84
2022/05/22 07:31:26;;;;;;;11.82;9.27;;;;;;;19.80;100.00;96155.75;5031903;28;20233;-85
2022/05/22 07:34:12;;;;;;;13.88;9.50;;;;;;;19.84;100.00;96159.50;5030305;28;20268;-86
2022/05/22 07:37:16;;;;;;;11.57;8.35;;;;;;;19.81;100.00;96170.25;5040759;28;20214;-85
2022/05/22 07:39:58;;;;;;;12.05;8.75;;;;;;;19.83;100.00;96168.84;5040539;28;20206;-86
2022/05/22 07:42:44;;;;;;;10.68;8.50;;;;;;;19.98;100.00;96163.19;5038280;28;20252;-86
2022/05/22 07:45:30;;;;;;;9.82;8.18;;;;;;;20.19;100.00;96163.72;5029317;28;20213;-85
2022/05/22 07:48:05;;;;;;;10.20;8.18;;;;;;;20.37;100.00;96157.44;5038503;28;20210;-85
2022/05/22 07:50:55;;;;;;;9.90;8.23;;;;;;;20.38;100.00;96153.59;5035942;28;20215;-86
2022/05/22 07:53:57;;;;;;;11.00;8.25;;;;;;;20.38;100.00;96153.59;5015900;28;20207;-84
2022/05/22 07:56:43;;;;;;;9.65;8.25;;;;;;;20.42;100.00;96150.25;5035163;28;20271;-85
2022/05/22 07:59:30;;;;;;;10.35;8.10;;;;;;;20.50;100.00;96144.09;5034176;28;20206;-85
2022/05/22 08:02:16;;;;;;;9.85;8.40;;;;;;;20.46;100.00;96152.09;5039245;28;20225;-84
2022/05/22 08:04:49;;;;;;;12.52;8.32;;;;;;;20.45;100.00;96149.66;5036501;28;20298;-85
2022/05/22 08:07:36;;;;;;;8.20;7.40;;;;;;;20.61;100.00;96137.31;5035410;28;20237;-85
2022/05/22 08:10:29;;;;;;;9.27;7.72;;;;;;;20.87;100.00;96134.97;5036508;28;20234;-85
2022/05/22 08:13:03;;;;;;;11.00;8.43;;;;;;;21.10;100.00;96140.31;5032022;28;20207;-85
2022/05/22 08:15:33;;;;;;;11.80;8.30;;;;;;;21.28;100.00;96127.66;5040869;28;20237;-86
2022/05/22 08:18:12;;;;;;;10.15;8.10;;;;;;;21.30;100.00;96127.38;5036202;28;20213;-85
2022/05/22 08:20:44;;;;;;;11.10;7.63;;;;;;;21.37;100.00;96125.84;5036827;28;20202;-85
2022/05/22 08:23:19;;;;;;;11.75;7.82;;;;;;;21.57;100.00;96141.13;5043995;28;20197;-85
2022/05/22 08:26:22;;;;;;;10.38;7.35;;;;;;;21.70;100.00;96129.31;5025489;28;20206;-85
2022/05/22 08:28:50;;;;;;;8.77;7.88;;;;;;;21.75;99.29;96131.97;5038132;28;20253;-85
2022/05/22 08:31:18;;;;;;;9.70;8.23;;;;;;;21.69;100.00;96121.38;5037576;28;20205;-84
2022/05/22 08:33:50;;;;;;;11.07;8.18;;;;;;;21.57;99.52;96119.16;5033779;28;20237;-87
2022/05/22 08:36:19;;;;;;;10.65;7.95;;;;;;;21.83;98.29;96119.44;5027904;28;20209;-85
2022/05/22 08:38:46;;;;;;;9.02;8.18;;;;;;;21.92;97.93;96116.78;5028003;28;20285;-85
2022/05/22 08:41:20;;;;;;;11.48;7.95;;;;;;;22.05;96.51;96118.69;5033531;28;20271;-85
2022/05/22 08:43:52;;;;;;;9.40;7.75;;;;;;;22.16;97.42;96109.13;5036717;28;20205;-85
2022/05/22 08:46:28;;;;;;;9.50;8.02;;;;;;;22.23;94.91;96109.50;5040970;28;20225;-86
2022/05/22 08:48:59;;;;;;;10.38;7.00;;;;;;;22.34;94.96;96110.91;5045262;28;20206;-86
2022/05/22 08:51:35;;;;;;;10.73;8.00;;;;;;;22.35;94.22;96108.97;5042417;28;20214;-86
2022/05/22 08:54:13;;;;;;;9.63;7.38;;;;;;;22.39;96.68;96112.69;5036044;28;20210;-86
2022/05/22 08:59:30;;;;;;;11.32;7.50;;;;;;;22.27;93.99;96114.06;5034985;28;20217;-85
2022/05/22 09:02:06;;;;;;;9.13;7.45;;;;;;;22.25;94.37;96123.75;5044456;28;20237;-85
2022/05/22 09:04:36;;;;;;;9.27;7.65;;;;;;;22.30;93.68;96123.63;5046834;28;20317;-85
2022/05/22 09:07:18;;;;;;;10.05;7.35;;;;;;;22.41;93.02;96118.72;5041248;28;20230;-85
2022/05/22 09:09:49;;;;;;;9.45;8.18;;;;;;;22.40;93.76;96119.84;5033328;28;20206;-86
2022/05/22 09:12:37;;;;;;;8.57;7.65;;;;;;;22.35;92.85;96129.03;5042087;28;20440;-86
2022/05/22 09:15:09;;;;;;;9.10;7.72;;;;;;;22.32;93.31;96140.63;5033985;28;20214;-86
2022/05/22 09:17:41;;;;;;;9.38;7.68;;;;;;;22.31;95.09;96133.50;5041203;28;20211;-85
2022/05/22 09:20:16;;;;;;;9.43;8.13;;;;;;;22.35;94.54;96140.03;5031459;28;20202;-86
2022/05/22 09:23:00;;;;;;;11.13;8.27;;;;;;;22.39;95.98;96145.72;5038711;28;20297;-85
2022/05/22 09:25:39;;;;;;;9.88;7.72;;;;;;;22.54;95.64;96148.13;5040476;28;20222;-85
2022/05/22 09:28:16;;;;;;;9.75;8.10;;;;;;;22.49;94.66;96143.53;5037520;28;20229;-85
2022/05/22 09:30:54;;;;;;;12.30;7.78;;;;;;;22.44;93.94;96149.19;5037064;28;20209;-85
2022/05/22 09:33:30;;;;;;;9.13;8.18;;;;;;;22.24;94.13;96152.38;5040459;28;20258;-85
2022/05/22 09:36:07;;;;;;;9.95;8.45;;;;;;;22.16;94.18;96153.94;5049319;28;20207;-86
2022/05/22 09:38:53;;;;;;;11.82;7.85;;;;;;;22.15;95.15;96151.47;5037984;28;20206;-85
2022/05/22 09:41:32;;;;;;;10.20;7.57;;;;;;;22.29;93.81;96129.47;5043977;28;20220;-84
2022/05/22 09:44:38;;;;;;;9.75;7.80;;;;;;;22.47;94.10;96126.53;5045273;28;20205;-86
2022/05/22 09:47:29;;;;;;;12.35;8.55;;;;;;;22.53;93.39;96136.31;5052226;28;20234;-85
2022/05/22 09:50:13;;;;;;;8.55;7.50;;;;;;;22.79;91.88;96125.53;5046830;28;20242;-85
2022/05/22 09:52:49;;;;;;;7.60;6.65;;;;;;;22.98;90.96;96126.13;5038160;28;20202;-85
2022/05/22 09:55:27;;;;;;;10.13;8.63;;;;;;;22.43;93.26;96117.28;5041902;28;20261;-85
2022/05/22 09:58:07;;;;;;;9.23;6.95;;;;;;;22.60;93.84;96113.84;5032302;28;20288;-86
2022/05/22 10:00:40;;;;;;;7.40;6.70;;;;;;;22.88;90.54;96117.31;5039724;28;20248;-85
2022/05/22 10:03:13;;;;;;;8.75;7.57;;;;;;;23.10;88.86;96117.28;5039736;28;20384;-84
2022/05/22 10:05:51;;;;;;;9.35;8.18;;;;;;;23.02;89.16;96120.81;5030727;28;20203;-85
2022/05/22 10:08:33;;;;;;;9.57;7.30;;;;;;;23.17;90.49;96095.59;5035972;28;20303;-85
2022/05/22 10:11:08;;;;;;;10.05;7.35;;;;;;;23.42;87.42;96096.03;5039711;28;20292;-85
2022/05/22 10:13:49;;;;;;;10.50;7.35;;;;;;;23.52;87.83;96096.59;5039721;28;20206;-85
2022/05/22 10:16:27;;;;;;;10.63;7.97;;;;;;;23.26;86.22;96074.44;5030969;28;20317;-85
2022/05/22 10:19:13;;;;;;;9.75;7.80;;;;;;;22.76;88.63;96062.03;5046445;28;20576;-85
2022/05/22 10:21:49;;;;;;;9.13;8.05;;;;;;;22.92;88.87;96036.53;5044642;28;20225;-85
2022/05/22 10:24:34;;;;;;;10.10;6.85;;;;;;;23.33;87.95;96021.63;5054789;28;20312;-85
2022/05/22 10:27:16;;;;;;;7.40;6.45;;;;;;;23.26;81.86;96024.03;5036636;28;20288;-86
2022/05/22 10:29:51;;;;;;;9.32;6.53;;;;;;;23.53;79.43;96014.75;5043664;28;20276;-85
2022/05/22 10:32:25;;;;;;;8.25;6.68;;;;;;;23.96;80.73;96007.34;5037896;28;20234;-85
2022/05/22 10:35:00;;;;;;;8.98;7.13;;;;;;;23.78;80.64;96000.19;5046488;28;20216;-85
2022/05/22 10:37:33;;;;;;;9.50;6.65;;;;;;;23.97;79.60;95992.44;5039231;28;20211;-86
2022/05/22 10:40:04;;;;;;;9.50;6.85;;;;;;;24.27;79.71;95978.78;5034721;28;20264;-85
2022/05/22 10:42:46;;;;;;;9.63;7.03;;;;;;;;;;5039480;28;20197;-85
2022/05/22 10:45:32;;;;;;;8.60;6.55;;;;;;;24.23;81.53;95969.56;5051939;28;20214;-85
2022/05/22 10:48:09;;;;;;;12.05;7.30;;;;;;;24.43;80.66;95958.63;5044579;28;20249;-85
2022/05/22 10:50:37;;;;;;;7.60;6.78;;;;;;;24.54;78.51;95956.34;5031578;28;20214;-85
2022/05/22 10:53:21;;;;;;;11.27;6.25;;;;;;;24.62;76.46;95947.22;5045367;28;20212;-85
2022/05/22 10:55:52;;;;;;;9.15;6.20;;;;;;;25.18;77.00;95936.94;5039700;28;20341;-86
2022/05/22 10:58:26;;;;;;;9.38;6.88;;;;;;;25.57;73.70;95933.78;5034813;28;20207;-85
2022/05/22 11:00:55;;;;;;;8.98;6.57;;;;;;;25.69;74.71;95932.28;5044345;28;20221;-85
2022/05/22 11:03:27;;;;;;;7.25;6.05;;;;;;;26.03;72.12;95929.19;5035031;28;20233;-85
2022/05/22 11:05:55;;;;;;;9.25;6.68;;;;;;;26.26;70.22;95930.50;5041607;28;20271;-85
2022/05/22 11:08:31;;;;;;;9.18;6.63;;;;;;;26.60;69.72;95922.97;5045443;28;20222;-84
2022/05/22 11:11:11;;;;;;;10.45;6.88;;;;;;;26.96;69.04;95925.03;5038309;28;20213;-85
2022/05/22 11:13:40;;;;;;;7.57;5.90;;;;;;;27.07;67.98;95917.84;5039502;28;20206;-86
2022/05/22 11:16:16;;;;;;;6.65;5.90;;;;;;;27.28;65.72;95912.19;5040287;28;20257;-85
2022/05/22 11:18:44;;;;;;;8.88;6.10;;;;;;;27.40;65.87;95907.44;5037390;28;20203;-85
2022/05/22 11:21:20;;;;;;;7.90;6.32;;;;;;;27.24;64.96;95894.63;5047984;28;20208;-85
2022/05/22 11:24:15;;;;;;;7.20;5.82;;;;;;;27.19;66.52;95881.03;5043567;28;20221;-85
2022/05/22 11:26:54;;;;;;;9.65;6.63;;;;;;;27.43;66.93;95875.44;5027435;28;20276;-84
2022/05/22 11:29:35;;;;;;;10.70;6.57;;;;;;;27.32;65.14;95869.56;5045175;28;20205;-85
2022/05/22 11:32:11;;;;;;;7.47;5.78;;;;;;;27.34;65.57;95872.00;5042842;28;20515;-85
2022/05/22 11:34:58;;;;;;;8.40;6.20;;;;;;;27.60;65.20;95864.09;5043821;28;20227;-85
2022/05/22 11:37:37;;;;;;;6.97;6.07;;;;;;;27.82;65.55;95854.44;5035928;28;20218;-84
2022/05/22 11:40:22;;;;;;;7.88;6.10;;;;;;;27.95;67.37;95844.91;5042524;28;20289;-85
2022/05/22 11:42:54;;;;;;;7.18;6.40;;;;;;;27.94;66.02;95829.41;5051564;28;20195;-85
2022/05/22 11:45:36;;;;;;;8.82;6.43;;;;;;;28.29;66.72;95824.06;5034820;28;20206;-85
2022/05/22 11:48:22;;;;;;;7.70;6.38;;;;;;;28.43;65.24;95824.41;5053431;28;20335;-86
2022/05/22 11:51:00;;;;;;;11.80;6.63;;;;;;;28.60;64.14;95824.06;5040739;28;20198;-86
2022/05/22 11:53:52;;;;;;;9.23;6.55;;;;;;;28.63;65.82;95822.56;5037873;28;20210;-85
2022/05/22 11:56:36;;;;;;;8.40;6.53;;;;;;;28.70;66.35;95802.47;5033828;28;20287;-86
2022/05/22 11:59:23;;;;;;;10.35;6.60;;;;;;;28.66;64.42;95809.94;5046016;28;20210;-85
2022/05/22 12:02:00;;;;;;;8.02;6.78;;;;;;;28.49;68.02;95806.34;5034988;28;20234;-85
2022/05/22 12:04:52;;;;;;;7.75;6.32;;;;;;;28.37;68.99;95800.88;5029917;28;20212;-85
2022/05/22 12:07:49;;;;;;;11.15;6.75;;;;;;;28.38;69.00;95793.34;5049395;28;20222;-85
2022/05/22 12:10:22;;;;;;;9.25;7.20;;;;;;;28.05;69.17;95791.69;5032311;28;20209;-86
2022/05/22 12:12:54;;;;;;;9.88;7.22;;;;;;;27.94;69.80;95789.75;5031367;28;20203;-86